sensor_id;sensor_type;location;lat;lon;timestamp;pressure;altitude;pressure_sealevel;temperature;humidity
35888;BME280;21990;42.540;23.496;2023-04-10T00:00:31;93619.72;;;4.98;85.37
35888;BME280;21990;42.540;23.496;2023-04-10T00:02:58;93617.16;;;4.95;85.61
35888;BME280;21990;42.540;23.496;2023-04-10T00:05:25;93618.97;;;4.98;85.87
35888;BME280;21990;42.540;23.496;2023-04-10T00:07:51;93610.84;;;5.00;85.44
35888;BME280;21990;42.540;23.496;2023-04-10T00:10:18;93616.19;;;4.98;85.64
35888;BME280;21990;42.540;23.496;2023-04-10T00:12:43;93605.00;;;4.98;85.69
35888;BME280;21990;42.540;23.496;2023-04-10T00:15:09;93614.41;;;5.00;85.96
35888;BME280;21990;42.540;23.496;2023-04-10T00:17:35;93608.84;;;5.00;86.12
35888;BME280;21990;42.540;23.496;2023-04-10T00:20:00;93594.38;;;5.02;85.96
35888;BME280;21990;42.540;23.496;2023-04-10T00:22:26;93595.66;;;5.06;86.00
35888;BME280;21990;42.540;23.496;2023-04-10T00:24:52;93599.22;;;5.07;85.72
35888;BME280;21990;42.540;23.496;2023-04-10T00:27:17;93589.81;;;5.04;86.52
35888;BME280;21990;42.540;23.496;2023-04-10T00:29:43;93584.19;;;4.99;86.50
35888;BME280;21990;42.540;23.496;2023-04-10T00:32:08;93592.63;;;5.04;86.31
35888;BME280;21990;42.540;23.496;2023-04-10T00:34:34;93587.25;;;5.01;86.21
35888;BME280;21990;42.540;23.496;2023-04-10T00:37:00;93588.56;;;5.05;86.91
35888;BME280;21990;42.540;23.496;2023-04-10T00:39:26;93582.75;;;5.09;87.05
35888;BME280;21990;42.540;23.496;2023-04-10T00:41:51;93575.09;;;5.04;86.89
35888;BME280;21990;42.540;23.496;2023-04-10T00:44:17;93588.09;;;5.12;86.46
35888;BME280;21990;42.540;23.496;2023-04-10T00:46:42;93575.41;;;5.11;86.47
35888;BME280;21990;42.540;23.496;2023-04-10T00:49:08;93576.41;;;5.14;86.20
35888;BME280;21990;42.540;23.496;2023-04-10T00:51:35;93574.16;;;5.18;85.54
35888;BME280;21990;42.540;23.496;2023-04-10T00:54:01;93575.22;;;5.20;86.49
35888;BME280;21990;42.540;23.496;2023-04-10T00:56:27;93563.50;;;5.16;86.56
35888;BME280;21990;42.540;23.496;2023-04-10T00:58:55;93570.84;;;5.14;86.79
35888;BME280;21990;42.540;23.496;2023-04-10T01:01:20;93572.88;;;5.13;86.86
35888;BME280;21990;42.540;23.496;2023-04-10T01:03:46;93564.19;;;5.06;87.30
35888;BME280;21990;42.540;23.496;2023-04-10T01:09:43;93548.00;;;5.15;88.46
35888;BME280;21990;42.540;23.496;2023-04-10T01:15:10;93558.69;;;5.17;88.63
35888;BME280;21990;42.540;23.496;2023-04-10T01:17:53;93548.31;;;5.23;89.45
35888;BME280;21990;42.540;23.496;2023-04-10T01:20:26;93551.59;;;5.21;88.97
35888;BME280;21990;42.540;23.496;2023-04-10T01:25:52;93557.09;;;5.10;89.50
35888;BME280;21990;42.540;23.496;2023-04-10T01:31:16;93548.06;;;5.21;89.24
35888;BME280;21990;42.540;23.496;2023-04-10T01:33:47;93549.78;;;5.18;89.15
35888;BME280;21990;42.540;23.496;2023-04-10T01:36:23;93551.88;;;5.23;89.85
35888;BME280;21990;42.540;23.496;2023-04-10T01:38:52;93554.38;;;5.21;89.86
35888;BME280;21990;42.540;23.496;2023-04-10T01:41:21;93555.69;;;5.26;90.73
35888;BME280;21990;42.540;23.496;2023-04-10T01:43:49;93551.09;;;5.23;90.22
35888;BME280;21990;42.540;23.496;2023-04-10T01:46:17;93548.78;;;5.21;90.77
35888;BME280;21990;42.540;23.496;2023-04-10T01:48:44;93547.28;;;5.26;90.67
35888;BME280;21990;42.540;23.496;2023-04-10T01:51:12;93553.69;;;5.32;90.67
35888;BME280;21990;42.540;23.496;2023-04-10T01:53:39;93550.66;;;5.36;90.46
35888;BME280;21990;42.540;23.496;2023-04-10T01:56:07;93545.84;;;5.36;91.13
35888;BME280;21990;42.540;23.496;2023-04-10T01:58:36;93543.53;;;5.35;91.00
35888;BME280;21990;42.540;23.496;2023-04-10T02:01:02;93551.69;;;5.38;90.94
35888;BME280;21990;42.540;23.496;2023-04-10T02:03:28;93551.44;;;5.36;91.20
35888;BME280;21990;42.540;23.496;2023-04-10T02:08:41;93538.97;;;5.37;91.34
35888;BME280;21990;42.540;23.496;2023-04-10T02:11:29;93538.75;;;5.41;90.97
35888;BME280;21990;42.540;23.496;2023-04-10T02:13:59;93541.78;;;5.37;91.24
35888;BME280;21990;42.540;23.496;2023-04-10T02:16:28;93539.97;;;5.34;91.38
35888;BME280;21990;42.540;23.496;2023-04-10T02:18:56;93538.47;;;5.39;90.97
35888;BME280;21990;42.540;23.496;2023-04-10T02:21:22;93538.00;;;5.40;91.35
35888;BME280;21990;42.540;23.496;2023-04-10T02:23:48;93544.84;;;5.45;91.53
35888;BME280;21990;42.540;23.496;2023-04-10T02:26:14;93535.72;;;5.44;91.09
35888;BME280;21990;42.540;23.496;2023-04-10T02:28:39;93524.03;;;5.46;91.04
35888;BME280;21990;42.540;23.496;2023-04-10T02:31:06;93521.78;;;5.50;92.33
35888;BME280;21990;42.540;23.496;2023-04-10T02:33:31;93527.59;;;5.41;92.10
35888;BME280;21990;42.540;23.496;2023-04-10T02:35:59;93526.53;;;5.33;92.05
35888;BME280;21990;42.540;23.496;2023-04-10T02:38:24;93520.91;;;5.27;92.66
35888;BME280;21990;42.540;23.496;2023-04-10T02:40:50;93514.81;;;5.29;93.09
35888;BME280;21990;42.540;23.496;2023-04-10T02:43:16;93518.84;;;5.22;92.41
35888;BME280;21990;42.540;23.496;2023-04-10T02:45:41;93523.81;;;5.07;92.19
35888;BME280;21990;42.540;23.496;2023-04-10T02:48:07;93521.44;;;4.94;92.79
35888;BME280;21990;42.540;23.496;2023-04-10T02:50:32;93517.44;;;5.01;93.24
35888;BME280;21990;42.540;23.496;2023-04-10T02:52:58;93520.53;;;5.08;92.93
35888;BME280;21990;42.540;23.496;2023-04-10T02:55:23;93510.41;;;5.11;92.61
35888;BME280;21990;42.540;23.496;2023-04-10T02:57:49;93507.66;;;5.16;92.11
35888;BME280;21990;42.540;23.496;2023-04-10T03:00:15;93505.63;;;5.17;92.03
35888;BME280;21990;42.540;23.496;2023-04-10T03:02:43;93514.97;;;5.14;91.60
35888;BME280;21990;42.540;23.496;2023-04-10T03:05:09;93515.03;;;5.19;92.10
35888;BME280;21990;42.540;23.496;2023-04-10T03:07:35;93503.13;;;5.24;92.03
35888;BME280;21990;42.540;23.496;2023-04-10T03:10:01;93504.91;;;5.28;91.99
35888;BME280;21990;42.540;23.496;2023-04-10T03:12:26;93511.50;;;5.30;91.63
35888;BME280;21990;42.540;23.496;2023-04-10T03:14:52;93509.47;;;5.25;91.10
35888;BME280;21990;42.540;23.496;2023-04-10T03:17:17;93513.28;;;5.28;91.24
35888;BME280;21990;42.540;23.496;2023-04-10T03:19:43;93518.63;;;5.31;91.39
35888;BME280;21990;42.540;23.496;2023-04-10T03:22:08;93518.88;;;5.33;91.42
35888;BME280;21990;42.540;23.496;2023-04-10T03:24:35;93515.59;;;5.35;91.26
35888;BME280;21990;42.540;23.496;2023-04-10T03:27:02;93506.47;;;5.34;91.08
35888;BME280;21990;42.540;23.496;2023-04-10T03:29:28;93507.47;;;5.31;90.73
35888;BME280;21990;42.540;23.496;2023-04-10T03:31:54;93505.97;;;5.36;90.79
35888;BME280;21990;42.540;23.496;2023-04-10T03:34:21;93515.81;;;5.25;90.69
35888;BME280;21990;42.540;23.496;2023-04-10T03:36:46;93515.81;;;5.25;90.73
35888;BME280;21990;42.540;23.496;2023-04-10T03:39:12;93510.44;;;5.16;90.61
35888;BME280;21990;42.540;23.496;2023-04-10T03:41:38;93515.25;;;5.16;90.47
35888;BME280;21990;42.540;23.496;2023-04-10T03:44:03;93521.38;;;5.20;90.39
35888;BME280;21990;42.540;23.496;2023-04-10T03:46:29;93512.94;;;5.14;90.26
35888;BME280;21990;42.540;23.496;2023-04-10T03:48:54;93517.03;;;5.13;90.01
35888;BME280;21990;42.540;23.496;2023-04-10T03:51:20;93517.78;;;5.14;90.19
35888;BME280;21990;42.540;23.496;2023-04-10T03:53:49;93519.06;;;5.18;90.23
35888;BME280;21990;42.540;23.496;2023-04-10T03:56:15;93520.06;;;5.15;89.28
35888;BME280;21990;42.540;23.496;2023-04-10T03:58:41;93521.56;;;5.11;89.44
35888;BME280;21990;42.540;23.496;2023-04-10T04:01:06;93513.91;;;5.06;88.89
35888;BME280;21990;42.540;23.496;2023-04-10T04:03:32;93519.78;;;5.08;88.87
35888;BME280;21990;42.540;23.496;2023-04-10T04:05:58;93525.84;;;5.06;88.79
35888;BME280;21990;42.540;23.496;2023-04-10T04:08:23;93537.75;;;5.01;88.83
35888;BME280;21990;42.540;23.496;2023-04-10T04:10:48;93538.00;;;4.98;88.92
35888;BME280;21990;42.540;23.496;2023-04-10T04:13:14;93542.50;;;4.90;89.34
35888;BME280;21990;42.540;23.496;2023-04-10T04:15:40;93530.81;;;4.86;89.37
35888;BME280;21990;42.540;23.496;2023-04-10T04:18:06;93530.53;;;4.84;89.52
35888;BME280;21990;42.540;23.496;2023-04-10T04:20:32;93527.50;;;4.87;89.44
35888;BME280;21990;42.540;23.496;2023-04-10T04:22:57;93533.59;;;4.86;89.70
35888;BME280;21990;42.540;23.496;2023-04-10T04:25:23;93542.75;;;4.86;89.97
35888;BME280;21990;42.540;23.496;2023-04-10T04:27:48;93544.63;;;4.69;89.73
35888;BME280;21990;42.540;23.496;2023-04-10T04:30:14;93535.50;;;4.68;90.12
35888;BME280;21990;42.540;23.496;2023-04-10T04:32:40;93547.41;;;4.69;90.65
35888;BME280;21990;42.540;23.496;2023-04-10T04:35:06;93554.00;;;4.66;90.70
35888;BME280;21990;42.540;23.496;2023-04-10T04:37:31;93550.50;;;4.45;90.13
35888;BME280;21990;42.540;23.496;2023-04-10T04:39:57;93545.47;;;4.49;90.09
35888;BME280;21990;42.540;23.496;2023-04-10T04:42:22;93549.97;;;4.41;90.03
35888;BME280;21990;42.540;23.496;2023-04-10T04:44:48;93550.28;;;4.49;90.16
35888;BME280;21990;42.540;23.496;2023-04-10T04:47:14;93553.00;;;4.69;91.05
35888;BME280;21990;42.540;23.496;2023-04-10T04:49:40;93559.75;;;4.88;90.91
35888;BME280;21990;42.540;23.496;2023-04-10T04:52:05;93547.66;;;5.02;91.67
35888;BME280;21990;42.540;23.496;2023-04-10T04:54:31;93551.97;;;5.03;91.07
35888;BME280;21990;42.540;23.496;2023-04-10T04:56:56;93546.75;;;5.16;91.35
35888;BME280;21990;42.540;23.496;2023-04-10T04:59:22;93544.03;;;5.33;90.92
35888;BME280;21990;42.540;23.496;2023-04-10T05:01:47;93551.50;;;5.47;89.16
35888;BME280;21990;42.540;23.496;2023-04-10T05:04:13;93547.44;;;5.54;88.63
35888;BME280;21990;42.540;23.496;2023-04-10T05:06:38;93552.56;;;5.61;88.67
35888;BME280;21990;42.540;23.496;2023-04-10T05:09:04;93551.78;;;5.60;88.37
35888;BME280;21990;42.540;23.496;2023-04-10T05:11:29;93542.19;;;5.67;88.27
35888;BME280;21990;42.540;23.496;2023-04-10T05:13:55;93537.38;;;5.67;88.58
35888;BME280;21990;42.540;23.496;2023-04-10T05:16:20;93549.53;;;5.64;88.11
35888;BME280;21990;42.540;23.496;2023-04-10T05:18:46;93541.22;;;5.76;87.51
35888;BME280;21990;42.540;23.496;2023-04-10T05:21:11;93551.09;;;5.77;86.91
35888;BME280;21990;42.540;23.496;2023-04-10T05:23:37;93546.28;;;5.77;86.82
35888;BME280;21990;42.540;23.496;2023-04-10T05:26:02;93555.91;;;5.70;86.91
35888;BME280;21990;42.540;23.496;2023-04-10T05:28:28;93553.41;;;5.84;86.87
35888;BME280;21990;42.540;23.496;2023-04-10T05:30:53;93541.50;;;5.83;86.08
35888;BME280;21990;42.540;23.496;2023-04-10T05:33:19;93559.00;;;5.84;86.24
35888;BME280;21990;42.540;23.496;2023-04-10T05:35:45;93556.69;;;5.77;85.89
35888;BME280;21990;42.540;23.496;2023-04-10T05:38:10;93553.38;;;5.67;85.56
35888;BME280;21990;42.540;23.496;2023-04-10T05:40:36;93547.22;;;5.57;86.04
35888;BME280;21990;42.540;23.496;2023-04-10T05:43:01;93555.09;;;5.59;86.49
35888;BME280;21990;42.540;23.496;2023-04-10T05:45:27;93549.69;;;5.44;87.31
35888;BME280;21990;42.540;23.496;2023-04-10T05:47:53;93556.00;;;5.39;88.17
35888;BME280;21990;42.540;23.496;2023-04-10T05:50:18;93549.63;;;5.33;88.71
35888;BME280;21990;42.540;23.496;2023-04-10T05:52:44;93562.63;;;5.36;88.92
35888;BME280;21990;42.540;23.496;2023-04-10T05:55:11;93553.03;;;5.48;89.58
35888;BME280;21990;42.540;23.496;2023-04-10T05:57:37;93561.47;;;5.59;88.63
35888;BME280;21990;42.540;23.496;2023-04-10T06:00:03;93564.28;;;5.65;87.86
35888;BME280;21990;42.540;23.496;2023-04-10T06:02:29;93552.13;;;5.73;88.92
35888;BME280;21990;42.540;23.496;2023-04-10T06:04:55;93558.75;;;5.82;88.55
35888;BME280;21990;42.540;23.496;2023-04-10T06:07:20;93559.28;;;5.86;88.66
35888;BME280;21990;42.540;23.496;2023-04-10T06:09:46;93557.28;;;5.92;88.41
35888;BME280;21990;42.540;23.496;2023-04-10T06:12:12;93557.34;;;6.03;87.87
35888;BME280;21990;42.540;23.496;2023-04-10T06:14:37;93560.88;;;6.03;87.51
35888;BME280;21990;42.540;23.496;2023-04-10T06:17:03;93554.31;;;6.06;87.61
35888;BME280;21990;42.540;23.496;2023-04-10T06:19:28;93556.09;;;6.09;87.10
35888;BME280;21990;42.540;23.496;2023-04-10T06:21:54;93555.28;;;6.03;87.04
35888;BME280;21990;42.540;23.496;2023-04-10T06:24:19;93552.50;;;6.03;87.44
35888;BME280;21990;42.540;23.496;2023-04-10T06:26:45;93553.53;;;6.06;87.23
35888;BME280;21990;42.540;23.496;2023-04-10T06:29:10;93552.03;;;6.10;87.01
35888;BME280;21990;42.540;23.496;2023-04-10T06:31:36;93557.38;;;6.14;87.39
35888;BME280;21990;42.540;23.496;2023-04-10T06:34:02;93553.56;;;6.17;86.85
35888;BME280;21990;42.540;23.496;2023-04-10T06:36:27;93549.25;;;6.27;87.58
35888;BME280;21990;42.540;23.496;2023-04-10T06:38:53;93557.41;;;6.25;86.88
35888;BME280;21990;42.540;23.496;2023-04-10T06:41:18;93554.13;;;6.38;87.87
35888;BME280;21990;42.540;23.496;2023-04-10T06:43:43;93552.34;;;6.40;87.98
35888;BME280;21990;42.540;23.496;2023-04-10T06:46:10;93555.13;;;6.40;87.28
35888;BME280;21990;42.540;23.496;2023-04-10T06:48:36;93563.25;;;6.38;86.63
35888;BME280;21990;42.540;23.496;2023-04-10T06:51:02;93561.78;;;6.48;86.57
35888;BME280;21990;42.540;23.496;2023-04-10T06:53:28;93565.59;;;6.56;87.44
35888;BME280;21990;42.540;23.496;2023-04-10T06:55:55;93560.00;;;6.62;87.88
35888;BME280;21990;42.540;23.496;2023-04-10T06:58:21;93560.25;;;6.69;87.53
35888;BME280;21990;42.540;23.496;2023-04-10T07:00:46;93568.91;;;6.77;87.43
35888;BME280;21990;42.540;23.496;2023-04-10T07:03:11;93566.88;;;6.78;87.56
35888;BME280;21990;42.540;23.496;2023-04-10T07:05:37;93563.59;;;6.79;88.16
35888;BME280;21990;42.540;23.496;2023-04-10T07:08:02;93563.31;;;6.94;88.73
35888;BME280;21990;42.540;23.496;2023-04-10T07:10:28;93571.47;;;7.03;89.07
35888;BME280;21990;42.540;23.496;2023-04-10T07:12:53;93572.50;;;7.11;87.73
35888;BME280;21990;42.540;23.496;2023-04-10T07:15:21;93563.06;;;7.20;87.63
35888;BME280;21990;42.540;23.496;2023-04-10T07:17:46;93569.66;;;7.28;83.54
35888;BME280;21990;42.540;23.496;2023-04-10T07:20:12;93567.13;;;7.24;81.64
35888;BME280;21990;42.540;23.496;2023-04-10T07:22:37;93561.25;;;7.33;82.95
35888;BME280;21990;42.540;23.496;2023-04-10T07:25:03;93558.69;;;7.46;82.25
35888;BME280;21990;42.540;23.496;2023-04-10T07:27:29;93555.09;;;7.57;82.72
35888;BME280;21990;42.540;23.496;2023-04-10T07:29:54;93553.78;;;7.69;80.50
35888;BME280;21990;42.540;23.496;2023-04-10T07:32:21;93554.78;;;7.77;80.98
35888;BME280;21990;42.540;23.496;2023-04-10T07:34:47;93559.41;;;7.69;80.44
35888;BME280;21990;42.540;23.496;2023-04-10T07:37:13;93567.50;;;7.78;80.11
35888;BME280;21990;42.540;23.496;2023-04-10T07:39:38;93569.06;;;7.74;79.02
35888;BME280;21990;42.540;23.496;2023-04-10T07:42:04;93565.22;;;7.77;79.17
35888;BME280;21990;42.540;23.496;2023-04-10T07:44:30;93565.72;;;7.81;79.88
35888;BME280;21990;42.540;23.496;2023-04-10T07:46:55;93564.91;;;7.97;79.97
35888;BME280;21990;42.540;23.496;2023-04-10T07:49:21;93572.03;;;7.98;78.42
35888;BME280;21990;42.540;23.496;2023-04-10T07:51:47;93571.25;;;8.08;79.24
35888;BME280;21990;42.540;23.496;2023-04-10T07:54:12;93571.47;;;8.10;77.60
35888;BME280;21990;42.540;23.496;2023-04-10T07:56:38;93570.66;;;8.21;77.21
35888;BME280;21990;42.540;23.496;2023-04-10T07:59:04;93569.09;;;8.26;76.88
35888;BME280;21990;42.540;23.496;2023-04-10T08:01:30;93574.97;;;8.28;77.48
35888;BME280;21990;42.540;23.496;2023-04-10T08:03:55;93561.97;;;8.25;76.71
35888;BME280;21990;42.540;23.496;2023-04-10T08:06:21;93566.06;;;8.29;76.66
35888;BME280;21990;42.540;23.496;2023-04-10T08:08:47;93560.91;;;8.39;76.73
35888;BME280;21990;42.540;23.496;2023-04-10T08:11:26;93565.25;;;8.40;77.38
35888;BME280;21990;42.540;23.496;2023-04-10T08:13:53;93560.06;;;8.49;77.43
35888;BME280;21990;42.540;23.496;2023-04-10T08:16:26;93556.19;;;8.58;76.03
35888;BME280;21990;42.540;23.496;2023-04-10T08:18:53;93553.38;;;8.64;74.98
35888;BME280;21990;42.540;23.496;2023-04-10T08:21:25;93559.44;;;8.68;75.68
35888;BME280;21990;42.540;23.496;2023-04-10T08:23:52;93558.44;;;8.65;74.61
35888;BME280;21990;42.540;23.496;2023-04-10T08:26:18;93556.88;;;8.70;75.04
35888;BME280;21990;42.540;23.496;2023-04-10T08:28:49;93557.38;;;8.74;75.27
35888;BME280;21990;42.540;23.496;2023-04-10T08:31:16;93560.41;;;8.76;73.96
35888;BME280;21990;42.540;23.496;2023-04-10T08:33:42;93563.75;;;8.74;73.90
35888;BME280;21990;42.540;23.496;2023-04-10T08:36:08;93566.75;;;8.82;74.48
35888;BME280;21990;42.540;23.496;2023-04-10T08:38:34;93569.81;;;8.84;74.53
35888;BME280;21990;42.540;23.496;2023-04-10T08:41:00;93565.50;;;8.83;73.25
35888;BME280;21990;42.540;23.496;2023-04-10T08:43:25;93559.38;;;8.79;72.23
35888;BME280;21990;42.540;23.496;2023-04-10T08:45:51;93567.34;;;8.69;71.85
35888;BME280;21990;42.540;23.496;2023-04-10T08:48:20;93572.25;;;8.63;72.30
35888;BME280;21990;42.540;23.496;2023-04-10T08:50:49;93564.38;;;8.56;72.90
35888;BME280;21990;42.540;23.496;2023-04-10T08:53:16;93567.63;;;8.66;74.60
35888;BME280;21990;42.540;23.496;2023-04-10T08:55:45;93564.63;;;8.58;73.01
35888;BME280;21990;42.540;23.496;2023-04-10T08:58:11;93566.88;;;8.65;73.81
35888;BME280;21990;42.540;23.496;2023-04-10T09:00:38;93569.09;;;8.78;74.73
35888;BME280;21990;42.540;23.496;2023-04-10T09:03:07;93563.28;;;8.70;75.53
35888;BME280;21990;42.540;23.496;2023-04-10T09:05:36;93562.25;;;8.68;72.54
35888;BME280;21990;42.540;23.496;2023-04-10T09:08:03;93562.03;;;8.60;73.42
35888;BME280;21990;42.540;23.496;2023-04-10T09:10:29;93559.38;;;8.79;75.39
35888;BME280;21990;42.540;23.496;2023-04-10T09:12:54;93550.00;;;9.00;77.05
35888;BME280;21990;42.540;23.496;2023-04-10T09:15:20;93555.44;;;9.23;76.26
35888;BME280;21990;42.540;23.496;2023-04-10T09:18:00;93544.56;;;9.38;75.80
35888;BME280;21990;42.540;23.496;2023-04-10T09:20:30;93550.78;;;9.55;74.24
35888;BME280;21990;42.540;23.496;2023-04-10T09:22:56;93537.34;;;9.72;73.96
35888;BME280;21990;42.540;23.496;2023-04-10T09:25:42;93531.31;;;9.81;72.90
35888;BME280;21990;42.540;23.496;2023-04-10T09:28:08;93530.53;;;10.05;73.71
35888;BME280;21990;42.540;23.496;2023-04-10T09:30:36;93527.00;;;10.23;74.31
35888;BME280;21990;42.540;23.496;2023-04-10T09:33:02;93527.91;;;10.31;72.39
35888;BME280;21990;42.540;23.496;2023-04-10T09:35:44;93524.56;;;10.33;71.77
35888;BME280;21990;42.540;23.496;2023-04-10T09:38:17;93523.66;;;10.25;71.16
35888;BME280;21990;42.540;23.496;2023-04-10T09:40:45;93518.03;;;10.25;70.62
35888;BME280;21990;42.540;23.496;2023-04-10T09:43:29;93524.72;;;10.22;69.64
35888;BME280;21990;42.540;23.496;2023-04-10T09:45:55;93519.25;;;10.29;70.25
35888;BME280;21990;42.540;23.496;2023-04-10T09:48:24;93516.81;;;10.39;70.93
35888;BME280;21990;42.540;23.496;2023-04-10T09:50:51;93518.78;;;10.44;70.59
35888;BME280;21990;42.540;23.496;2023-04-10T09:53:18;93513.41;;;10.46;69.38
35888;BME280;21990;42.540;23.496;2023-04-10T09:55:46;93498.59;;;10.59;69.46
35888;BME280;21990;42.540;23.496;2023-04-10T09:58:13;93510.91;;;10.74;70.31
35888;BME280;21990;42.540;23.496;2023-04-10T10:00:45;93499.06;;;10.94;70.00
35888;BME280;21990;42.540;23.496;2023-04-10T10:03:18;93497.59;;;11.07;68.67
35888;BME280;21990;42.540;23.496;2023-04-10T10:05:47;93495.25;;;11.24;66.47
35888;BME280;21990;42.540;23.496;2023-04-10T10:08:14;93504.69;;;11.26;66.75
35888;BME280;21990;42.540;23.496;2023-04-10T10:10:49;93496.81;;;11.38;67.91
35888;BME280;21990;42.540;23.496;2023-04-10T10:13:23;93497.16;;;11.48;65.18
35888;BME280;21990;42.540;23.496;2023-04-10T10:15:58;93487.16;;;11.60;65.73
35888;BME280;21990;42.540;23.496;2023-04-10T10:20:55;93492.03;;;11.01;59.91
35888;BME280;21990;42.540;23.496;2023-04-10T10:23:21;93476.56;;;11.08;62.62
35888;BME280;21990;42.540;23.496;2023-04-10T10:25:47;93478.22;;;11.16;64.87
35888;BME280;21990;42.540;23.496;2023-04-10T10:28:13;93478.50;;;11.13;62.74
35888;BME280;21990;42.540;23.496;2023-04-10T10:30:39;93469.63;;;11.09;64.82
35888;BME280;21990;42.540;23.496;2023-04-10T10:33:06;93474.38;;;11.01;63.75
35888;BME280;21990;42.540;23.496;2023-04-10T10:35:36;93468.63;;;11.06;65.77
35888;BME280;21990;42.540;23.496;2023-04-10T10:38:03;93481.44;;;11.07;62.38
35888;BME280;21990;42.540;23.496;2023-04-10T10:40:44;93460.28;;;11.14;63.23
35888;BME280;21990;42.540;23.496;2023-04-10T10:48:58;93451.22;;;11.60;61.68
35888;BME280;21990;42.540;23.496;2023-04-10T10:51:45;93446.16;;;11.72;59.76
35888;BME280;21990;42.540;23.496;2023-04-10T10:54:33;93460.13;;;11.64;56.85
35888;BME280;21990;42.540;23.496;2023-04-10T10:57:00;93463.34;;;11.29;57.89
35888;BME280;21990;42.540;23.496;2023-04-10T11:02:13;93460.22;;;11.19;59.25
35888;BME280;21990;42.540;23.496;2023-04-10T11:04:41;93457.59;;;11.08;57.89
35888;BME280;21990;42.540;23.496;2023-04-10T11:07:08;93446.13;;;11.19;59.80
35888;BME280;21990;42.540;23.496;2023-04-10T11:09:49;93440.91;;;11.23;56.73
35888;BME280;21990;42.540;23.496;2023-04-10T11:12:20;93436.47;;;11.28;58.20
35888;BME280;21990;42.540;23.496;2023-04-10T11:14:59;93421.28;;;11.44;57.96
35888;BME280;21990;42.540;23.496;2023-04-10T11:17:47;93429.00;;;11.43;57.51
35888;BME280;21990;42.540;23.496;2023-04-10T11:20:14;93420.41;;;11.49;56.13
35888;BME280;21990;42.540;23.496;2023-04-10T11:23:10;93427.78;;;11.52;58.50
35888;BME280;21990;42.540;23.496;2023-04-10T11:25:50;93420.75;;;11.59;61.04
35888;BME280;21990;42.540;23.496;2023-04-10T11:33:39;93416.06;;;11.61;61.09
35888;BME280;21990;42.540;23.496;2023-04-10T11:36:05;93427.16;;;11.59;54.32
35888;BME280;21990;42.540;23.496;2023-04-10T11:38:32;93429.41;;;11.34;53.45
35888;BME280;21990;42.540;23.496;2023-04-10T11:41:02;93421.16;;;11.36;54.63
35888;BME280;21990;42.540;23.496;2023-04-10T11:43:29;93414.13;;;11.43;55.15
35888;BME280;21990;42.540;23.496;2023-04-10T11:46:02;93416.50;;;11.39;54.29
35888;BME280;21990;42.540;23.496;2023-04-10T11:48:29;93421.03;;;11.29;55.85
35888;BME280;21990;42.540;23.496;2023-04-10T11:50:55;93439.72;;;11.19;56.67
35888;BME280;21990;42.540;23.496;2023-04-10T11:53:21;93433.47;;;10.94;58.11
35888;BME280;21990;42.540;23.496;2023-04-10T11:55:47;93416.78;;;10.96;61.16
35888;BME280;21990;42.540;23.496;2023-04-10T11:58:23;93415.06;;;11.06;62.50
35888;BME280;21990;42.540;23.496;2023-04-10T12:00:59;93419.56;;;11.28;63.21
35888;BME280;21990;42.540;23.496;2023-04-10T12:06:00;93407.59;;;11.48;60.38
35888;BME280;21990;42.540;23.496;2023-04-10T12:08:32;93405.78;;;11.51;56.92
35888;BME280;21990;42.540;23.496;2023-04-10T12:10:58;93409.00;;;11.68;59.68
35888;BME280;21990;42.540;23.496;2023-04-10T12:13:26;93408.69;;;11.84;59.75
35888;BME280;21990;42.540;23.496;2023-04-10T12:15:52;93405.66;;;11.82;57.85
35888;BME280;21990;42.540;23.496;2023-04-10T12:18:21;93411.31;;;11.82;54.69
35888;BME280;21990;42.540;23.496;2023-04-10T12:20:47;93417.69;;;11.83;55.65
35888;BME280;21990;42.540;23.496;2023-04-10T12:23:13;93402.59;;;11.67;54.80
35888;BME280;21990;42.540;23.496;2023-04-10T12:25:40;93410.22;;;11.59;57.11
35888;BME280;21990;42.540;23.496;2023-04-10T12:28:06;93405.22;;;11.52;59.42
35888;BME280;21990;42.540;23.496;2023-04-10T12:30:32;93394.16;;;11.54;62.37
35888;BME280;21990;42.540;23.496;2023-04-10T12:32:57;93399.91;;;11.49;60.68
35888;BME280;21990;42.540;23.496;2023-04-10T12:35:37;93398.06;;;11.51;63.00
35888;BME280;21990;42.540;23.496;2023-04-10T12:38:03;93399.25;;;11.42;62.24
35888;BME280;21990;42.540;23.496;2023-04-10T12:40:29;93404.34;;;11.44;63.09
35888;BME280;21990;42.540;23.496;2023-04-10T12:42:54;93405.09;;;11.44;62.23
35888;BME280;21990;42.540;23.496;2023-04-10T12:45:20;93411.94;;;11.49;62.33
35888;BME280;21990;42.540;23.496;2023-04-10T12:47:47;93391.75;;;11.45;59.98
35888;BME280;21990;42.540;23.496;2023-04-10T12:50:16;93388.41;;;11.47;61.33
35888;BME280;21990;42.540;23.496;2023-04-10T12:52:43;93378.31;;;11.38;61.47
35888;BME280;21990;42.540;23.496;2023-04-10T12:55:17;93392.22;;;11.36;62.59
35888;BME280;21990;42.540;23.496;2023-04-10T12:57:45;93386.78;;;11.38;62.47
35888;BME280;21990;42.540;23.496;2023-04-10T13:00:16;93388.09;;;11.24;61.20
35888;BME280;21990;42.540;23.496;2023-04-10T13:02:43;93386.34;;;11.08;63.21
35888;BME280;21990;42.540;23.496;2023-04-10T13:05:09;93381.31;;;10.87;63.61
35888;BME280;21990;42.540;23.496;2023-04-10T13:07:35;93383.59;;;10.89;64.26
35888;BME280;21990;42.540;23.496;2023-04-10T13:10:02;93386.84;;;10.80;64.07
35888;BME280;21990;42.540;23.496;2023-04-10T13:12:28;93388.03;;;10.84;64.09
35888;BME280;21990;42.540;23.496;2023-04-10T13:14:54;93378.59;;;10.82;65.79
35888;BME280;21990;42.540;23.496;2023-04-10T13:17:20;93380.34;;;10.85;66.44
35888;BME280;21990;42.540;23.496;2023-04-10T13:19:46;93374.03;;;10.79;66.06
35888;BME280;21990;42.540;23.496;2023-04-10T13:22:12;93376.41;;;10.75;66.20
35888;BME280;21990;42.540;23.496;2023-04-10T13:24:37;93373.47;;;10.35;64.85
35888;BME280;21990;42.540;23.496;2023-04-10T13:27:03;93367.56;;;10.20;65.55
35888;BME280;21990;42.540;23.496;2023-04-10T13:29:29;93372.28;;;10.12;69.12
35888;BME280;21990;42.540;23.496;2023-04-10T13:31:54;93368.56;;;10.23;68.14